Time;durP1;ratioP1;P1;durP2;ratioP2;P2;SDS_P1;SDS_P2;PMS_P1;PMS_P2;Temp;Humidity;BMP_temperature;BMP_pressure;BME280_temperature;BME280_humidity;BME280_pressure;Samples;Min_cycle;Max_cycle;Signal;HPM_P1;HPM_P2
2022/03/22 00:00:33;;;;;;;18.67;15.73;;;;;;;;;;5052711;28;20882;-81
2022/03/22 00:03:00;;;;;;;17.83;15.57;;;;;;;;;;5057866;28;20472;-80
2022/03/22 00:05:27;;;;;;;17.67;15.63;;;;;;;;;;5055813;28;20440;-82
2022/03/22 00:07:54;;;;;;;17.70;15.87;;;;;;;;;;5058653;28;20452;-79
2022/03/22 00:10:21;;;;;;;17.47;15.07;;;;;;;;;;5058906;28;20452;-80
2022/03/22 00:12:49;;;;;;;16.87;15.17;;;;;;;;;;5056564;28;20473;-78
2022/03/22 00:15:17;;;;;;;16.30;14.60;;;;;;;;;;5056436;28;20444;-79
2022/03/22 00:17:46;;;;;;;19.03;15.40;;;;;;;;;;5057860;28;21160;-80
2022/03/22 00:20:15;;;;;;;16.70;15.03;;;;;;;;;;5057328;28;20463;-79
2022/03/22 00:22:42;;;;;;;20.57;16.07;;;;;;;;;;5056604;28;20504;-81
2022/03/22 00:25:10;;;;;;;19.13;16.33;;;;;;;;;;5058895;28;20430;-81
2022/03/22 00:27:51;;;;;;;17.17;15.47;;;;;;;;;;5059900;28;20948;-80
2022/03/22 00:30:19;;;;;;;18.53;14.97;;;;;;;;;;5059647;28;20441;-81
2022/03/22 00:32:48;;;;;;;19.37;16.60;;;;;;;;;;5059234;28;20460;-80
2022/03/22 00:35:17;;;;;;;20.50;16.60;;;;;;;;;;5059882;28;20432;-80
2022/03/22 00:37:46;;;;;;;19.13;15.63;;;;;;;;;;5058476;28;20441;-80
2022/03/22 00:40:15;;;;;;;18.47;15.27;;;;;;;;;;5059747;28;20466;-81
2022/03/22 00:42:42;;;;;;;17.47;15.60;;;;;;;;;;5059186;28;20485;-80
2022/03/22 00:45:10;;;;;;;17.90;14.67;;;;;;;;;;5059312;28;20459;-80
2022/03/22 00:47:37;;;;;;;16.57;14.93;;;;;;;;;;5059431;28;20439;-80
2022/03/22 00:50:06;;;;;;;16.93;15.23;;;;;;;;;;5059279;28;20450;-80
2022/03/22 00:52:34;;;;;;;17.80;14.50;;;;;;;;;;5058733;28;20452;-80
2022/03/22 00:55:02;;;;;;;16.23;14.53;;;;;;;;;;5059324;28;20438;-81
2022/03/22 00:57:29;;;;;;;18.63;15.10;;;;;;;;;;5059509;28;20440;-79
2022/03/22 01:00:08;;;;;;;16.90;14.67;;;;;;;;;;5059789;28;20483;-81
2022/03/22 01:02:35;;;;;;;17.73;15.63;;;;;;;;;;5060201;28;20474;-80
2022/03/22 01:05:03;;;;;;;18.03;15.30;;;;;;;;;;5059643;28;20451;-82
2022/03/22 01:07:33;;;;;;;17.80;14.80;;;;;;;;;;5060794;28;20436;-80
2022/03/22 01:10:00;;;;;;;16.97;15.30;;;;;;;;;;5065392;28;20442;-82
2022/03/22 01:12:27;;;;;;;17.10;15.47;;;;;;;;;;5065749;28;20464;-80
2022/03/22 01:14:55;;;;;;;17.93;15.53;;;;;;;;;;5066625;28;20455;-80
2022/03/22 01:17:22;;;;;;;18.80;16.37;;;;;;;;;;5064292;28;20446;-79
2022/03/22 01:19:49;;;;;;;18.20;16.00;;;;;;;;;;5058884;28;20482;-80
2022/03/22 01:22:17;;;;;;;23.43;16.60;;;;;;;;;;5059289;28;20463;-81
2022/03/22 01:24:45;;;;;;;20.40;15.90;;;;;;;;;;5058910;28;21054;-81
2022/03/22 01:27:12;;;;;;;18.33;16.17;;;;;;;;;;5059030;28;20436;-80
2022/03/22 01:29:40;;;;;;;23.03;17.53;;;;;;;;;;5059630;28;20469;-81
2022/03/22 01:32:08;;;;;;;19.13;16.13;;;;;;;;;;5059550;28;20497;-80
2022/03/22 01:34:35;;;;;;;19.70;17.07;;;;;;;;;;5058906;28;20445;-82
2022/03/22 01:37:02;;;;;;;21.43;16.97;;;;;;;;;;5059753;28;20497;-80
2022/03/22 01:39:29;;;;;;;20.50;16.80;;;;;;;;;;5059120;28;20841;-82
2022/03/22 01:41:58;;;;;;;20.97;17.40;;;;;;;;;;5060044;28;20457;-80
2022/03/22 01:44:25;;;;;;;22.10;16.20;;;;;;;;;;5059120;28;20480;-81
2022/03/22 01:46:53;;;;;;;20.13;17.80;;;;;;;;;;5058543;28;20830;-80
2022/03/22 01:49:21;;;;;;;19.43;16.53;;;;;;;;;;5060495;28;20745;-81
2022/03/22 01:51:49;;;;;;;21.20;18.07;;;;;;;;;;5059637;28;20451;-81
2022/03/22 01:54:16;;;;;;;20.43;18.23;;;;;;;;;;5058711;28;20466;-81
2022/03/22 01:56:44;;;;;;;21.23;17.07;;;;;;;;;;5059101;28;20450;-79
2022/03/22 01:59:12;;;;;;;21.50;18.40;;;;;;;;;;5057175;28;20479;-79
2022/03/22 02:07:09;;;;;;;18.83;16.83;;;;;;;;;;5059320;28;20418;-79
2022/03/22 02:09:36;;;;;;;20.83;18.43;;;;;;;;;;5060169;28;20442;-82
2022/03/22 02:12:03;;;;;;;20.10;17.13;;;;;;;;;;5060680;28;20451;-80
2022/03/22 02:14:32;;;;;;;19.70;16.83;;;;;;;;;;5061931;28;20472;-81
2022/03/22 02:16:59;;;;;;;20.47;17.63;;;;;;;;;;5071664;28;20434;-79
2022/03/22 02:19:26;;;;;;;20.67;18.03;;;;;;;;;;5063377;28;20500;-80
2022/03/22 02:21:58;;;;;;;21.40;17.97;;;;;;;;;;5069616;28;20418;-79
2022/03/22 02:24:26;;;;;;;22.60;19.00;;;;;;;;;;5073197;28;20492;-79
2022/03/22 02:26:55;;;;;;;19.47;17.47;;;;;;;;;;5066379;28;20447;-81
2022/03/22 02:29:22;;;;;;;27.00;18.13;;;;;;;;;;5057486;28;20644;-79
2022/03/22 02:31:49;;;;;;;22.87;17.87;;;;;;;;;;5056521;28;20925;-81
2022/03/22 02:34:17;;;;;;;21.27;19.00;;;;;;;;;;5057707;28;20459;-80
2022/03/22 02:36:44;;;;;;;22.60;19.63;;;;;;;;;;5058197;28;20481;-80
2022/03/22 02:39:11;;;;;;;22.63;18.17;;;;;;;;;;5061195;28;20481;-80
2022/03/22 02:41:42;;;;;;;20.80;18.50;;;;;;;;;;5060685;28;20991;-81
2022/03/22 02:44:10;;;;;;;21.47;18.17;;;;;;;;;;5059562;28;21042;-81
2022/03/22 02:46:37;;;;;;;21.80;18.63;;;;;;;;;;5058739;28;20506;-81
2022/03/22 02:49:06;;;;;;;23.40;18.60;;;;;;;;;;5057862;28;20438;-82
2022/03/22 02:51:33;;;;;;;22.60;19.10;;;;;;;;;;5057618;28;20446;-80
2022/03/22 02:54:00;;;;;;;26.50;19.40;;;;;;;;;;5056687;28;20477;-80
2022/03/22 02:56:27;;;;;;;21.30;19.10;;;;;;;;;;5055083;28;20450;-79
2022/03/22 02:58:55;;;;;;;25.57;19.03;;;;;;;;;;5054498;28;21058;-80
2022/03/22 03:01:22;;;;;;;23.03;18.27;;;;;;;;;;5053923;28;20434;-80
2022/03/22 03:03:49;;;;;;;25.27;19.10;;;;;;;;;;5053607;28;20446;-80
2022/03/22 03:06:16;;;;;;;20.60;17.50;;;;;;;;;;5052988;28;20532;-80
2022/03/22 03:08:43;;;;;;;24.60;18.93;;;;;;;;;;5057403;28;20441;-81
2022/03/22 03:11:12;;;;;;;22.57;18.77;;;;;;;;;;5054962;28;20434;-79
2022/03/22 03:16:25;;;;;;;24.97;20.37;;;;;;;;;;5053402;28;20588;-81
2022/03/22 03:18:52;;;;;;;26.20;18.40;;;;;;;;;;5053010;28;20535;-80
2022/03/22 03:21:19;;;;;;;22.17;19.30;;;;;;;;;;5055632;28;20449;-79
2022/03/22 03:23:46;;;;;;;21.90;19.60;;;;;;;;;;5056315;28;20454;-79
2022/03/22 03:26:13;;;;;;;25.13;19.33;;;;;;;;;;5064747;28;20449;-79
2022/03/22 03:28:40;;;;;;;21.47;18.60;;;;;;;;;;5073468;28;20414;-78
2022/03/22 03:31:08;;;;;;;23.57;19.90;;;;;;;;;;5057405;28;20454;-80
2022/03/22 03:33:36;;;;;;;21.63;18.70;;;;;;;;;;5054582;28;20469;-80
2022/03/22 03:36:03;;;;;;;25.47;19.43;;;;;;;;;;5055038;28;20452;-80
2022/03/22 03:38:30;;;;;;;23.73;18.80;;;;;;;;;;5055830;28;20457;-80
2022/03/22 03:43:42;;;;;;;22.40;18.40;;;;;;;;;;5056398;28;20437;-79
2022/03/22 03:48:59;;;;;;;23.00;19.70;;;;;;;;;;5056123;28;20420;-79
2022/03/22 03:51:26;;;;;;;22.43;19.87;;;;;;;;;;5057917;28;20507;-80
2022/03/22 03:53:53;;;;;;;21.87;18.50;;;;;;;;;;5064451;28;20462;-80
2022/03/22 03:56:20;;;;;;;25.10;20.60;;;;;;;;;;5061490;28;20439;-80
2022/03/22 03:58:47;;;;;;;22.70;18.93;;;;;;;;;;5060672;28;20948;-81
2022/03/22 04:01:14;;;;;;;23.03;19.30;;;;;;;;;;5063825;28;20491;-81
2022/03/22 04:03:42;;;;;;;22.83;19.60;;;;;;;;;;5060138;28;20477;-78
2022/03/22 04:06:10;;;;;;;24.80;18.73;;;;;;;;;;5066104;28;20441;-79
2022/03/22 04:08:37;;;;;;;25.30;20.00;;;;;;;;;;5072296;28;20826;-78
2022/03/22 04:11:04;;;;;;;26.17;19.07;;;;;;;;;;5074648;28;20442;-79
2022/03/22 04:13:31;;;;;;;22.63;19.10;;;;;;;;;;5074822;28;20465;-78
2022/03/22 04:15:58;;;;;;;25.53;19.83;;;;;;;;;;5075289;28;20426;-78
2022/03/22 04:18:25;;;;;;;22.10;18.80;;;;;;;;;;5074885;28;20456;-77
2022/03/22 04:20:52;;;;;;;22.90;19.97;;;;;;;;;;5074206;28;20478;-77
2022/03/22 04:23:21;;;;;;;21.40;18.57;;;;;;;;;;5073567;28;20516;-77
2022/03/22 04:25:48;;;;;;;20.97;18.60;;;;;;;;;;5073734;28;20438;-78
2022/03/22 04:33:44;;;;;;;25.83;18.90;;;;;;;;;;5067501;28;20464;-79
2022/03/22 04:36:12;;;;;;;22.60;18.87;;;;;;;;;;5068087;28;20437;-80
2022/03/22 04:38:40;;;;;;;20.77;18.23;;;;;;;;;;5064272;28;20488;-78
2022/03/22 04:41:08;;;;;;;25.27;18.77;;;;;;;;;;5072705;28;20485;-78
2022/03/22 04:43:35;;;;;;;23.57;18.87;;;;;;;;;;5072948;28;20445;-78
2022/03/22 04:46:02;;;;;;;24.13;19.47;;;;;;;;;;5068750;28;20438;-80
2022/03/22 04:48:29;;;;;;;24.20;19.60;;;;;;;;;;5068085;28;20445;-80
2022/03/22 04:59:08;;;;;;;26.20;19.63;;;;;;;;;;5076357;28;20429;-78
2022/03/22 05:01:35;;;;;;;23.13;19.70;;;;;;;;;;5076266;28;20468;-78
2022/03/22 05:04:02;;;;;;;22.67;18.40;;;;;;;;;;5077382;28;20466;-77
2022/03/22 05:06:30;;;;;;;19.80;17.70;;;;;;;;;;5076248;28;20461;-78
2022/03/22 05:08:57;;;;;;;23.60;19.80;;;;;;;;;;5071423;28;20454;-78
2022/03/22 05:11:26;;;;;;;23.27;20.23;;;;;;;;;;5069608;28;20450;-82
2022/03/22 05:13:54;;;;;;;24.77;19.80;;;;;;;;;;5068137;28;20466;-80
2022/03/22 05:16:21;;;;;;;24.33;19.80;;;;;;;;;;5067144;28;20785;-79
2022/03/22 05:18:48;;;;;;;24.20;20.40;;;;;;;;;;5065281;28;20468;-78
2022/03/22 05:21:15;;;;;;;24.97;20.10;;;;;;;;;;5067038;28;20481;-79
2022/03/22 05:23:42;;;;;;;24.97;19.60;;;;;;;;;;5069259;28;20457;-78
2022/03/22 05:26:09;;;;;;;22.27;19.00;;;;;;;;;;5075028;28;20445;-78
2022/03/22 05:28:38;;;;;;;22.13;19.10;;;;;;;;;;5075006;28;20452;-77
2022/03/22 05:31:05;;;;;;;25.20;20.63;;;;;;;;;;5075416;28;20463;-77
2022/03/22 05:33:32;;;;;;;25.83;21.83;;;;;;;;;;5074871;28;20578;-78
2022/03/22 05:36:00;;;;;;;25.07;21.10;;;;;;;;;;5074549;28;20442;-77
2022/03/22 05:38:27;;;;;;;25.30;20.13;;;;;;;;;;5075182;28;20426;-77
2022/03/22 05:40:54;;;;;;;30.33;21.37;;;;;;;;;;5075379;28;20484;-78
2022/03/22 05:43:21;;;;;;;29.40;20.87;;;;;;;;;;5071774;28;20454;-79
2022/03/22 05:45:50;;;;;;;30.00;20.63;;;;;;;;;;5075546;28;20457;-77
2022/03/22 05:48:17;;;;;;;25.20;20.47;;;;;;;;;;5093150;28;20440;-79
2022/03/22 05:50:44;;;;;;;23.67;20.77;;;;;;;;;;5087301;28;20453;-77
2022/03/22 05:53:11;;;;;;;27.80;20.93;;;;;;;;;;5085250;28;20470;-79
2022/03/22 05:55:38;;;;;;;23.37;19.57;;;;;;;;;;5085327;28;20532;-78
2022/03/22 05:58:05;;;;;;;29.23;21.40;;;;;;;;;;5096451;28;20451;-78
2022/03/22 06:00:33;;;;;;;31.73;21.77;;;;;;;;;;5090005;28;20472;-81
2022/03/22 06:03:02;;;;;;;23.87;20.20;;;;;;;;;;5083668;28;20476;-78
2022/03/22 06:05:30;;;;;;;24.83;22.20;;;;;;;;;;5071965;28;20452;-78
2022/03/22 06:07:57;;;;;;;27.73;20.90;;;;;;;;;;5064395;28;20449;-78
2022/03/22 06:10:24;;;;;;;28.27;20.57;;;;;;;;;;5076718;28;20437;-77
2022/03/22 06:12:52;;;;;;;28.63;23.10;;;;;;;;;;5070457;28;20461;-77
2022/03/22 06:15:20;;;;;;;23.87;19.80;;;;;;;;;;5075405;28;20426;-78
2022/03/22 06:17:48;;;;;;;24.90;20.50;;;;;;;;;;5075427;28;20437;-76
2022/03/22 06:20:16;;;;;;;25.87;20.67;;;;;;;;;;5071582;28;20488;-78
2022/03/22 06:22:45;;;;;;;29.77;24.47;;;;;;;;;;5074828;28;20462;-78
2022/03/22 06:25:13;;;;;;;25.40;22.40;;;;;;;;;;5076236;28;20453;-77
2022/03/22 06:27:40;;;;;;;26.40;20.97;;;;;;;;;;5059092;28;20450;-79
2022/03/22 06:30:08;;;;;;;23.83;19.93;;;;;;;;;;5053298;28;20516;-80
2022/03/22 06:32:41;;;;;;;23.83;19.00;;;;;;;;;;5067557;28;20464;-80
2022/03/22 06:35:08;;;;;;;24.70;19.90;;;;;;;;;;5075975;28;20480;-80
2022/03/22 06:37:36;;;;;;;22.30;18.60;;;;;;;;;;5074283;28;20441;-80
2022/03/22 06:40:04;;;;;;;25.47;21.00;;;;;;;;;;5074272;28;20522;-79
2022/03/22 06:42:31;;;;;;;23.10;20.00;;;;;;;;;;5074292;28;20645;-78
2022/03/22 06:44:58;;;;;;;23.43;18.90;;;;;;;;;;5074465;28;20570;-81
2022/03/22 06:47:31;;;;;;;25.13;20.60;;;;;;;;;;5075190;28;20445;-79
2022/03/22 06:49:58;;;;;;;26.70;21.00;;;;;;;;;;5075362;28;20456;-79
2022/03/22 06:52:25;;;;;;;37.03;23.73;;;;;;;;;;5073860;28;20441;-80
2022/03/22 06:54:53;;;;;;;23.37;20.73;;;;;;;;;;5074401;28;20437;-79
2022/03/22 06:57:44;;;;;;;25.23;18.47;;;;;;;;;;5073873;28;20448;-82
2022/03/22 07:00:15;;;;;;;23.40;20.67;;;;;;;;;;5058229;28;20912;-79
2022/03/22 07:02:45;;;;;;;25.63;21.63;;;;;;;;;;5074899;28;20484;-80
2022/03/22 07:05:12;;;;;;;27.00;20.87;;;;;;;;;;5067539;28;20471;-79
2022/03/22 07:07:40;;;;;;;27.23;20.80;;;;;;;;;;5054567;28;20458;-80
2022/03/22 07:10:14;;;;;;;24.70;22.00;;;;;;;;;;5056357;28;20437;-82
2022/03/22 07:12:56;;;;;;;25.37;20.40;;;;;;;;;;5055909;28;20452;-81
2022/03/22 07:15:40;;;;;;;26.03;20.83;;;;;;;;;;5056147;28;20461;-81
2022/03/22 07:18:08;;;;;;;26.40;21.80;;;;;;;;;;5052765;28;20458;-79
2022/03/22 07:20:49;;;;;;;;;;;;;;;;;;;;;
2022/03/22 07:23:17;;;;;;;29.07;20.77;;;;;;;;;;5070883;28;20457;-79
2022/03/22 07:25:45;;;;;;;28.63;19.80;;;;;;;;;;5071874;28;21257;-79
2022/03/22 07:28:12;;;;;;;25.33;20.47;;;;;;;;;;5060918;28;20455;-79
2022/03/22 07:33:29;;;;;;;24.50;20.23;;;;;;;;;;5061774;28;20466;-81
2022/03/22 07:35:56;;;;;;;25.30;20.47;;;;;;;;;;5064546;28;20448;-81
2022/03/22 07:38:23;;;;;;;24.13;19.33;;;;;;;;;;5069337;28;20505;-80
2022/03/22 07:40:51;;;;;;;22.10;19.63;;;;;;;;;;5073720;28;20477;-82
2022/03/22 07:43:18;;;;;;;27.80;20.27;;;;;;;;;;5073713;28;20546;-80
2022/03/22 07:45:55;;;;;;;25.13;18.87;;;;;;;;;;5078489;28;20454;-82
2022/03/22 07:48:22;;;;;;;23.23;20.73;;;;;;;;;;5078550;28;20449;-80
2022/03/22 07:53:34;;;;;;;23.20;19.23;;;;;;;;;;5077116;28;20442;-79
2022/03/22 07:56:02;;;;;;;22.13;18.40;;;;;;;;;;5074123;28;20438;-80
2022/03/22 07:58:29;;;;;;;21.50;19.23;;;;;;;;;;5074890;28;20482;-80
2022/03/22 08:01:01;;;;;;;23.93;19.13;;;;;;;;;;5075862;28;20476;-80
2022/03/22 08:03:35;;;;;;;21.10;18.90;;;;;;;;;;5057253;28;20479;-80
2022/03/22 08:06:07;;;;;;;21.03;18.60;;;;;;;;;;5051384;28;20524;-82
2022/03/22 08:08:43;;;;;;;22.63;18.93;;;;;;;;;;5068627;28;20504;-82
2022/03/22 08:11:11;;;;;;;20.90;18.63;;;;;;;;;;5076649;28;20495;-80
2022/03/22 08:13:39;;;;;;;23.47;19.27;;;;;;;;;;5079193;28;20530;-81
2022/03/22 08:16:06;;;;;;;22.13;19.70;;;;;;;;;;5074091;28;21132;-81
2022/03/22 08:18:33;;;;;;;22.50;20.10;;;;;;;;;;5074252;28;20440;-82
2022/03/22 08:21:00;;;;;;;25.40;20.20;;;;;;;;;;5075784;28;20491;-80
2022/03/22 08:23:27;;;;;;;25.23;19.90;;;;;;;;;;5081363;28;20473;-79
2022/03/22 08:25:54;;;;;;;25.10;20.40;;;;;;;;;;5082631;28;20429;-82
2022/03/22 08:28:23;;;;;;;23.90;20.27;;;;;;;;;;5077084;28;20498;-79
2022/03/22 08:30:50;;;;;;;22.83;20.43;;;;;;;;;;5079435;28;20439;-82
2022/03/22 08:33:18;;;;;;;22.50;20.07;;;;;;;;;;5081398;28;20476;-81
2022/03/22 08:35:46;;;;;;;24.10;20.83;;;;;;;;;;5075709;28;20477;-82
2022/03/22 08:38:13;;;;;;;23.80;20.57;;;;;;;;;;5054838;28;20816;-80
2022/03/22 08:40:41;;;;;;;21.17;18.70;;;;;;;;;;5047244;28;20481;-79
2022/03/22 08:43:08;;;;;;;22.60;20.20;;;;;;;;;;5066121;28;20476;-79
2022/03/22 08:45:37;;;;;;;25.90;20.40;;;;;;;;;;5066993;28;20444;-80
2022/03/22 08:48:09;;;;;;;22.67;20.33;;;;;;;;;;5075782;28;20979;-81
2022/03/22 08:50:36;;;;;;;21.83;19.53;;;;;;;;;;5076356;28;20444;-80
2022/03/22 08:53:05;;;;;;;22.60;20.20;;;;;;;;;;5074689;28;20468;-79
2022/03/22 08:55:32;;;;;;;23.80;20.07;;;;;;;;;;5076051;28;20839;-81
2022/03/22 08:58:05;;;;;;;21.90;19.60;;;;;;;;;;5057421;28;20449;-79
2022/03/22 09:00:32;;;;;;;21.30;19.13;;;;;;;;;;5067644;28;20485;-79
2022/03/22 09:03:01;;;;;;;22.23;19.93;;;;;;;;;;5063483;28;20465;-82
2022/03/22 09:08:13;;;;;;;22.93;19.27;;;;;;;;;;5070547;28;20486;-79
2022/03/22 09:10:40;;;;;;;21.23;19.20;;;;;;;;;;5083804;28;20444;-81
2022/03/22 09:13:08;;;;;;;23.70;20.27;;;;;;;;;;5054036;28;20831;-81
2022/03/22 09:15:37;;;;;;;23.47;19.93;;;;;;;;;;5056374;28;20454;-81
2022/03/22 09:18:13;;;;;;;22.80;20.53;;;;;;;;;;5057136;28;20488;-80
2022/03/22 09:20:40;;;;;;;22.77;20.43;;;;;;;;;;5055601;28;20516;-79
2022/03/22 09:23:08;;;;;;;22.27;20.07;;;;;;;;;;5055778;28;20450;-81
2022/03/22 09:25:35;;;;;;;24.17;21.63;;;;;;;;;;5058062;28;20473;-84
2022/03/22 09:28:05;;;;;;;23.17;20.93;;;;;;;;;;5046016;28;20990;-80
2022/03/22 09:30:33;;;;;;;22.77;20.67;;;;;;;;;;5051889;28;20488;-79
2022/03/22 09:33:01;;;;;;;25.30;22.50;;;;;;;;;;5057391;28;20583;-81
2022/03/22 09:35:30;;;;;;;22.63;20.30;;;;;;;;;;5060917;28;20461;-81
2022/03/22 09:37:57;;;;;;;22.60;20.37;;;;;;;;;;5056112;28;20976;-82
2022/03/22 09:40:25;;;;;;;23.30;20.87;;;;;;;;;;5056375;28;20449;-81
2022/03/22 09:42:54;;;;;;;24.70;22.10;;;;;;;;;;5063966;28;20574;-82
2022/03/22 09:45:25;;;;;;;24.80;22.23;;;;;;;;;;5064899;28;20481;-81
2022/03/22 09:47:52;;;;;;;26.30;23.50;;;;;;;;;;5061615;28;20480;-79
2022/03/22 09:50:20;;;;;;;24.93;22.33;;;;;;;;;;5046888;28;20440;-81
2022/03/22 09:52:49;;;;;;;24.97;22.33;;;;;;;;;;5048044;28;20535;-82
2022/03/22 09:55:17;;;;;;;25.33;22.60;;;;;;;;;;5055793;28;20454;-81
2022/03/22 09:57:44;;;;;;;27.57;24.77;;;;;;;;;;5057617;28;20489;-81
2022/03/22 10:00:14;;;;;;;30.60;25.50;;;;;;;;;;5058556;28;20452;-82
2022/03/22 10:02:42;;;;;;;26.27;23.47;;;;;;;;;;5056854;28;20484;-82
2022/03/22 10:05:21;;;;;;;25.57;23.07;;;;;;;;;;5059779;28;20521;-81
2022/03/22 10:07:59;;;;;;;30.70;23.67;;;;;;;;;;5065009;28;20468;-82
2022/03/22 10:10:26;;;;;;;25.20;22.77;;;;;;;;;;5076300;28;20889;-81
2022/03/22 10:12:58;;;;;;;18.07;16.27;;;;;;;;;;5068496;28;20492;-76
2022/03/22 10:15:29;;;;;;;16.80;15.17;;;;;;;;;;5054690;28;20540;-77
2022/03/22 10:18:01;;;;;;;19.40;17.60;;;;;;;;;;5053889;28;20869;-78
2022/03/22 10:20:28;;;;;;;23.43;19.97;;;;;;;;;;5047835;28;20457;-77
2022/03/22 10:22:56;;;;;;;22.43;19.80;;;;;;;;;;5053491;28;20484;-79
2022/03/22 10:25:25;;;;;;;22.67;20.57;;;;;;;;;;5054030;28;20456;-78
2022/03/22 10:27:54;;;;;;;21.03;18.87;;;;;;;;;;5065113;28;20515;-79
2022/03/22 10:30:21;;;;;;;20.47;18.57;;;;;;;;;;5068435;28;21004;-78
2022/03/22 10:32:51;;;;;;;19.70;17.80;;;;;;;;;;5071911;28;20467;-79
2022/03/22 10:35:20;;;;;;;19.80;17.77;;;;;;;;;;5072690;28;21027;-80
2022/03/22 10:37:48;;;;;;;19.77;17.80;;;;;;;;;;5072912;28;20452;-78
2022/03/22 10:40:22;;;;;;;21.97;19.80;;;;;;;;;;5073280;28;20449;-77
2022/03/22 10:42:51;;;;;;;21.07;18.63;;;;;;;;;;5071567;28;20888;-77
2022/03/22 10:45:18;;;;;;;22.20;20.10;;;;;;;;;;5073345;28;20532;-79
2022/03/22 10:47:45;;;;;;;22.83;19.83;;;;;;;;;;5073682;28;20447;-82
2022/03/22 10:50:13;;;;;;;21.60;19.60;;;;;;;;;;5074575;28;20502;-78
2022/03/22 10:52:54;;;;;;;20.80;18.77;;;;;;;;;;5069034;28;20507;-81
2022/03/22 10:55:22;;;;;;;21.80;19.70;;;;;;;;;;5053137;28;20452;-79
2022/03/22 10:57:49;;;;;;;20.50;18.10;;;;;;;;;;5051370;28;20508;-79
2022/03/22 11:00:18;;;;;;;20.20;18.30;;;;;;;;;;5049042;28;21026;-82
2022/03/22 11:02:48;;;;;;;20.70;18.73;;;;;;;;;;5055717;28;20485;-81
2022/03/22 11:05:15;;;;;;;20.10;18.00;;;;;;;;;;5053031;28;20540;-83
2022/03/22 11:07:43;;;;;;;23.03;17.80;;;;;;;;;;5052880;28;20824;-81
2022/03/22 11:10:11;;;;;;;20.97;18.87;;;;;;;;;;5051402;28;20547;-80
2022/03/22 11:12:38;;;;;;;19.70;17.90;;;;;;;;;;5049419;28;21063;-81
2022/03/22 11:15:06;;;;;;;21.60;18.70;;;;;;;;;;5062651;28;20448;-80
2022/03/22 11:17:36;;;;;;;20.03;18.20;;;;;;;;;;5063616;28;20445;-81
2022/03/22 11:20:06;;;;;;;18.80;17.20;;;;;;;;;;5072946;28;20476;-79
2022/03/22 11:22:33;;;;;;;19.80;17.90;;;;;;;;;;5072324;28;20563;-81
2022/03/22 11:25:07;;;;;;;21.00;18.90;;;;;;;;;;5073368;28;20441;-80
2022/03/22 11:27:35;;;;;;;20.33;17.40;;;;;;;;;;5074353;28;20449;-81
2022/03/22 11:30:02;;;;;;;18.63;17.03;;;;;;;;;;5074359;28;20549;-81
2022/03/22 11:35:17;;;;;;;21.27;19.07;;;;;;;;;;5074261;28;20495;-83
2022/03/22 11:37:44;;;;;;;21.13;19.13;;;;;;;;;;5073135;28;20437;-81
2022/03/22 11:43:02;;;;;;;21.17;19.33;;;;;;;;;;5074845;28;20480;-80
2022/03/22 11:45:29;;;;;;;18.70;17.00;;;;;;;;;;5074483;28;20429;-81
2022/03/22 11:47:57;;;;;;;20.60;18.80;;;;;;;;;;5073308;28;20494;-81
2022/03/22 11:50:25;;;;;;;19.43;17.37;;;;;;;;;;5072926;28;20875;-81
2022/03/22 11:53:00;;;;;;;19.00;17.40;;;;;;;;;;5072338;28;20452;-80
2022/03/22 11:55:27;;;;;;;20.80;18.73;;;;;;;;;;5073001;28;20828;-81
2022/03/22 11:57:55;;;;;;;19.33;17.60;;;;;;;;;;5073509;28;20838;-79
2022/03/22 12:00:24;;;;;;;20.60;18.60;;;;;;;;;;5073225;28;20444;-81
2022/03/22 12:02:54;;;;;;;19.47;17.57;;;;;;;;;;5076500;28;20487;-79
2022/03/22 12:05:24;;;;;;;19.00;17.30;;;;;;;;;;5069316;28;20448;-80
2022/03/22 12:07:53;;;;;;;19.83;17.93;;;;;;;;;;5056950;28;20495;-80
2022/03/22 12:10:21;;;;;;;19.67;17.77;;;;;;;;;;5057462;28;20445;-80
2022/03/22 12:12:49;;;;;;;20.70;18.70;;;;;;;;;;5058004;28;20461;-80
2022/03/22 12:15:17;;;;;;;21.63;19.63;;;;;;;;;;5058945;28;20460;-81
2022/03/22 12:17:45;;;;;;;20.90;18.80;;;;;;;;;;5063874;28;20469;-81
2022/03/22 12:20:13;;;;;;;21.87;19.50;;;;;;;;;;5074125;28;20440;-80
2022/03/22 12:22:41;;;;;;;22.43;20.23;;;;;;;;;;5061189;28;20492;-80
2022/03/22 12:25:15;;;;;;;20.83;18.93;;;;;;;;;;5058734;28;20448;-81
2022/03/22 12:27:50;;;;;;;20.13;18.33;;;;;;;;;;5058911;28;20471;-81
2022/03/22 12:30:18;;;;;;;21.90;19.70;;;;;;;;;;5058324;28;21055;-81
2022/03/22 12:32:46;;;;;;;21.80;19.70;;;;;;;;;;5060881;28;20466;-81
2022/03/22 12:35:13;;;;;;;21.83;19.60;;;;;;;;;;5063515;28;20453;-79
2022/03/22 12:37:40;;;;;;;21.93;19.93;;;;;;;;;;5060242;28;20434;-80
2022/03/22 12:40:08;;;;;;;20.00;18.10;;;;;;;;;;5062290;28;20456;-81
2022/03/22 12:42:36;;;;;;;20.83;18.90;;;;;;;;;;5063053;28;20523;-79
2022/03/22 12:45:03;;;;;;;21.53;19.40;;;;;;;;;;5063061;28;20445;-80
2022/03/22 12:47:31;;;;;;;20.33;18.53;;;;;;;;;;5056662;28;20453;-79
2022/03/22 12:49:58;;;;;;;20.47;18.57;;;;;;;;;;5060169;28;20491;-79
2022/03/22 12:52:28;;;;;;;20.50;18.67;;;;;;;;;;5061588;28;20438;-79
2022/03/22 12:54:55;;;;;;;20.20;18.30;;;;;;;;;;5062726;28;20437;-80
2022/03/22 12:57:22;;;;;;;19.70;17.80;;;;;;;;;;5056498;28;20507;-80
2022/03/22 12:59:51;;;;;;;20.00;17.90;;;;;;;;;;5057003;28;20449;-79
2022/03/22 13:02:19;;;;;;;20.50;18.80;;;;;;;;;;5056509;28;20481;-81
2022/03/22 13:04:47;;;;;;;20.87;18.97;;;;;;;;;;5056520;28;20438;-81
2022/03/22 13:07:15;;;;;;;23.07;19.93;;;;;;;;;;5055958;28;20952;-81
2022/03/22 13:12:27;;;;;;;20.50;18.70;;;;;;;;;;5055738;28;20479;-79
2022/03/22 13:15:04;;;;;;;20.93;18.73;;;;;;;;;;5055170;28;20446;-80
2022/03/22 13:17:31;;;;;;;18.70;17.10;;;;;;;;;;5056084;28;20437;-79
2022/03/22 13:19:59;;;;;;;20.23;18.50;;;;;;;;;;5055974;28;21010;-80
2022/03/22 13:22:29;;;;;;;19.00;17.20;;;;;;;;;;5055807;28;20535;-81
2022/03/22 13:25:06;;;;;;;19.70;17.80;;;;;;;;;;5055964;28;20426;-78
2022/03/22 13:27:34;;;;;;;22.37;19.73;;;;;;;;;;5056854;28;20442;-80
2022/03/22 13:30:02;;;;;;;19.57;17.87;;;;;;;;;;5055858;28;20457;-78
2022/03/22 13:32:30;;;;;;;19.67;17.87;;;;;;;;;;5056135;28;20580;-80
2022/03/22 13:35:02;;;;;;;19.57;17.70;;;;;;;;;;5056514;28;20437;-80
2022/03/22 13:37:29;;;;;;;18.30;16.80;;;;;;;;;;5055603;28;20477;-80
2022/03/22 13:40:05;;;;;;;19.80;18.03;;;;;;;;;;5056291;28;20453;-79
2022/03/22 13:42:32;;;;;;;19.80;17.90;;;;;;;;;;5055267;28;20488;-81
2022/03/22 13:45:00;;;;;;;20.53;18.63;;;;;;;;;;5056021;28;20449;-78
2022/03/22 13:47:36;;;;;;;20.63;18.63;;;;;;;;;;5056002;28;20445;-81
2022/03/22 13:50:11;;;;;;;19.57;17.80;;;;;;;;;;5056110;28;20445;-80
2022/03/22 13:52:38;;;;;;;18.53;16.73;;;;;;;;;;5055857;28;20522;-79
2022/03/22 13:55:12;;;;;;;21.17;19.17;;;;;;;;;;5057507;28;20457;-77
2022/03/22 13:57:39;;;;;;;19.53;17.73;;;;;;;;;;5056753;28;20810;-79
2022/03/22 14:00:07;;;;;;;20.57;18.83;;;;;;;;;;5056608;28;20437;-80
2022/03/22 14:02:36;;;;;;;20.03;18.33;;;;;;;;;;5055040;28;20477;-79
2022/03/22 14:05:03;;;;;;;18.57;16.87;;;;;;;;;;5056000;28;20445;-77
2022/03/22 14:07:30;;;;;;;18.70;16.90;;;;;;;;;;5055495;28;20492;-81
2022/03/22 14:09:57;;;;;;;18.83;17.10;;;;;;;;;;5055876;28;20529;-79
2022/03/22 14:12:24;;;;;;;18.57;16.87;;;;;;;;;;5055526;28;20949;-78
2022/03/22 14:14:51;;;;;;;19.00;17.07;;;;;;;;;;5055535;28;20445;-80
2022/03/22 14:17:18;;;;;;;19.07;17.20;;;;;;;;;;5055950;28;20476;-80
2022/03/22 14:19:47;;;;;;;18.60;16.77;;;;;;;;;;5055828;28;20426;-81
2022/03/22 14:22:14;;;;;;;18.90;17.30;;;;;;;;;;5057600;28;20469;-79
2022/03/22 14:24:41;;;;;;;19.53;17.93;;;;;;;;;;5056967;28;20456;-78
2022/03/22 14:27:08;;;;;;;20.33;18.43;;;;;;;;;;5055772;28;20450;-81
2022/03/22 14:29:35;;;;;;;20.40;18.50;;;;;;;;;;5055711;28;20511;-79
2022/03/22 14:32:02;;;;;;;19.23;17.43;;;;;;;;;;5055740;28;20434;-77
2022/03/22 14:37:16;;;;;;;19.57;17.77;;;;;;;;;;5054909;28;20515;-79
2022/03/22 14:39:43;;;;;;;20.53;18.43;;;;;;;;;;5055194;28;20485;-79
2022/03/22 14:42:10;;;;;;;20.33;18.53;;;;;;;;;;5055180;28;20450;-80
2022/03/22 14:44:39;;;;;;;19.90;18.10;;;;;;;;;;5054930;28;20496;-79
2022/03/22 14:47:06;;;;;;;19.63;17.93;;;;;;;;;;5055004;28;20906;-80
2022/03/22 14:49:33;;;;;;;20.43;18.63;;;;;;;;;;5055632;28;20928;-77
2022/03/22 14:54:46;;;;;;;21.40;19.20;;;;;;;;;;5055376;28;20736;-82
2022/03/22 14:59:58;;;;;;;19.47;17.70;;;;;;;;;;5055552;28;20513;-78
2022/03/22 15:02:26;;;;;;;19.93;18.13;;;;;;;;;;5054187;28;20473;-78
2022/03/22 15:04:53;;;;;;;20.63;18.57;;;;;;;;;;5054234;28;20445;-79
2022/03/22 15:07:22;;;;;;;18.43;16.80;;;;;;;;;;5054641;28;20446;-80
2022/03/22 15:09:50;;;;;;;20.53;18.17;;;;;;;;;;5054101;28;20544;-79
2022/03/22 15:12:20;;;;;;;21.17;19.17;;;;;;;;;;5053673;28;20456;-77
2022/03/22 15:14:48;;;;;;;19.50;17.80;;;;;;;;;;5053725;28;20433;-80
2022/03/22 15:17:15;;;;;;;20.70;18.90;;;;;;;;;;5053017;28;20444;-81